sensor_id;sensor_type;location;lat;lon;timestamp;P1;durP1;ratioP1;P2;durP2;ratioP2
62861;SDS011;48953;53.110;5.592;2022-07-24T00:00:14;8.60;;;6.38;;
62861;SDS011;48953;53.110;5.592;2022-07-24T00:02:40;8.43;;;6.13;;
62861;SDS011;48953;53.110;5.592;2022-07-24T00:05:07;9.02;;;6.60;;
62861;SDS011;48953;53.110;5.592;2022-07-24T00:07:32;8.90;;;7.13;;
62861;SDS011;48953;53.110;5.592;2022-07-24T00:09:59;11.30;;;7.10;;
62861;SDS011;48953;53.110;5.592;2022-07-24T00:12:25;9.30;;;7.18;;
62861;SDS011;48953;53.110;5.592;2022-07-24T00:14:51;9.30;;;7.28;;
62861;SDS011;48953;53.110;5.592;2022-07-24T00:17:16;8.80;;;6.07;;
62861;SDS011;48953;53.110;5.592;2022-07-24T00:19:42;10.40;;;7.10;;
62861;SDS011;48953;53.110;5.592;2022-07-24T00:22:08;8.73;;;7.15;;
62861;SDS011;48953;53.110;5.592;2022-07-24T00:24:33;8.60;;;6.40;;
62861;SDS011;48953;53.110;5.592;2022-07-24T00:26:59;9.63;;;7.35;;
62861;SDS011;48953;53.110;5.592;2022-07-24T00:29:25;8.10;;;6.75;;
62861;SDS011;48953;53.110;5.592;2022-07-24T00:31:51;9.27;;;6.65;;
62861;SDS011;48953;53.110;5.592;2022-07-24T00:34:17;8.35;;;6.57;;
62861;SDS011;48953;53.110;5.592;2022-07-24T00:36:42;9.05;;;6.93;;
62861;SDS011;48953;53.110;5.592;2022-07-24T00:39:08;9.07;;;6.70;;
62861;SDS011;48953;53.110;5.592;2022-07-24T00:41:34;10.25;;;7.35;;
62861;SDS011;48953;53.110;5.592;2022-07-24T00:44:01;10.40;;;7.60;;
62861;SDS011;48953;53.110;5.592;2022-07-24T00:46:31;10.23;;;7.07;;
62861;SDS011;48953;53.110;5.592;2022-07-24T00:48:57;8.95;;;6.85;;
62861;SDS011;48953;53.110;5.592;2022-07-24T00:51:23;10.73;;;7.20;;
62861;SDS011;48953;53.110;5.592;2022-07-24T00:53:49;9.32;;;6.70;;
62861;SDS011;48953;53.110;5.592;2022-07-24T00:56:15;9.38;;;6.88;;
62861;SDS011;48953;53.110;5.592;2022-07-24T00:58:40;9.70;;;7.25;;
62861;SDS011;48953;53.110;5.592;2022-07-24T01:01:06;9.40;;;7.75;;
62861;SDS011;48953;53.110;5.592;2022-07-24T01:03:31;9.63;;;7.15;;
62861;SDS011;48953;53.110;5.592;2022-07-24T01:05:57;9.55;;;7.32;;
62861;SDS011;48953;53.110;5.592;2022-07-24T01:08:23;12.73;;;7.53;;
62861;SDS011;48953;53.110;5.592;2022-07-24T01:10:49;8.90;;;7.03;;
62861;SDS011;48953;53.110;5.592;2022-07-24T01:13:15;10.13;;;7.53;;
62861;SDS011;48953;53.110;5.592;2022-07-24T01:15:41;10.68;;;7.20;;
62861;SDS011;48953;53.110;5.592;2022-07-24T01:18:06;11.85;;;7.40;;
62861;SDS011;48953;53.110;5.592;2022-07-24T01:20:35;10.50;;;7.88;;
62861;SDS011;48953;53.110;5.592;2022-07-24T01:23:02;10.65;;;7.45;;
62861;SDS011;48953;53.110;5.592;2022-07-24T01:25:28;10.73;;;6.93;;
62861;SDS011;48953;53.110;5.592;2022-07-24T01:27:53;10.13;;;7.13;;
62861;SDS011;48953;53.110;5.592;2022-07-24T01:30:19;10.32;;;7.65;;
62861;SDS011;48953;53.110;5.592;2022-07-24T01:32:45;8.75;;;7.22;;
62861;SDS011;48953;53.110;5.592;2022-07-24T01:35:12;10.57;;;7.93;;
62861;SDS011;48953;53.110;5.592;2022-07-24T01:37:38;9.38;;;7.10;;
62861;SDS011;48953;53.110;5.592;2022-07-24T01:40:04;12.85;;;7.55;;
62861;SDS011;48953;53.110;5.592;2022-07-24T01:42:30;9.18;;;7.43;;
62861;SDS011;48953;53.110;5.592;2022-07-24T01:44:55;10.63;;;8.10;;
62861;SDS011;48953;53.110;5.592;2022-07-24T01:47:21;13.02;;;7.43;;
62861;SDS011;48953;53.110;5.592;2022-07-24T01:49:47;11.68;;;7.60;;
62861;SDS011;48953;53.110;5.592;2022-07-24T01:52:12;11.82;;;7.95;;
62861;SDS011;48953;53.110;5.592;2022-07-24T01:54:38;10.18;;;7.47;;
62861;SDS011;48953;53.110;5.592;2022-07-24T01:57:03;10.38;;;6.97;;
62861;SDS011;48953;53.110;5.592;2022-07-24T01:59:29;9.48;;;7.63;;
62861;SDS011;48953;53.110;5.592;2022-07-24T02:02:12;8.98;;;7.70;;
62861;SDS011;48953;53.110;5.592;2022-07-24T02:04:47;9.38;;;7.25;;
62861;SDS011;48953;53.110;5.592;2022-07-24T02:07:13;10.13;;;7.63;;
62861;SDS011;48953;53.110;5.592;2022-07-24T02:09:47;12.52;;;7.70;;
62861;SDS011;48953;53.110;5.592;2022-07-24T02:12:12;11.05;;;7.75;;
62861;SDS011;48953;53.110;5.592;2022-07-24T02:14:38;9.20;;;7.45;;
62861;SDS011;48953;53.110;5.592;2022-07-24T02:17:11;12.15;;;7.28;;
62861;SDS011;48953;53.110;5.592;2022-07-24T02:19:36;11.27;;;7.38;;
62861;SDS011;48953;53.110;5.592;2022-07-24T02:22:10;10.55;;;7.57;;
62861;SDS011;48953;53.110;5.592;2022-07-24T02:24:36;10.73;;;7.57;;
62861;SDS011;48953;53.110;5.592;2022-07-24T02:27:01;12.60;;;8.38;;
62861;SDS011;48953;53.110;5.592;2022-07-24T02:29:27;12.05;;;7.80;;
62861;SDS011;48953;53.110;5.592;2022-07-24T02:31:53;10.80;;;7.85;;
62861;SDS011;48953;53.110;5.592;2022-07-24T02:34:18;10.82;;;7.97;;
62861;SDS011;48953;53.110;5.592;2022-07-24T02:36:44;9.27;;;7.53;;
62861;SDS011;48953;53.110;5.592;2022-07-24T02:39:09;11.68;;;8.13;;
62861;SDS011;48953;53.110;5.592;2022-07-24T02:41:35;9.68;;;7.55;;
62861;SDS011;48953;53.110;5.592;2022-07-24T02:44:01;9.85;;;7.13;;
62861;SDS011;48953;53.110;5.592;2022-07-24T02:46:26;11.10;;;8.05;;
62861;SDS011;48953;53.110;5.592;2022-07-24T02:48:52;11.93;;;8.50;;
62861;SDS011;48953;53.110;5.592;2022-07-24T02:51:17;12.27;;;7.95;;
62861;SDS011;48953;53.110;5.592;2022-07-24T02:53:43;11.65;;;8.50;;
62861;SDS011;48953;53.110;5.592;2022-07-24T02:56:08;10.07;;;7.80;;
62861;SDS011;48953;53.110;5.592;2022-07-24T02:58:34;12.70;;;7.85;;
62861;SDS011;48953;53.110;5.592;2022-07-24T03:01:00;12.20;;;8.80;;
62861;SDS011;48953;53.110;5.592;2022-07-24T03:03:26;11.43;;;8.98;;
62861;SDS011;48953;53.110;5.592;2022-07-24T03:05:51;10.55;;;8.57;;
62861;SDS011;48953;53.110;5.592;2022-07-24T03:08:17;12.82;;;8.55;;
62861;SDS011;48953;53.110;5.592;2022-07-24T03:10:43;12.57;;;8.23;;
62861;SDS011;48953;53.110;5.592;2022-07-24T03:13:08;9.68;;;7.78;;
62861;SDS011;48953;53.110;5.592;2022-07-24T03:15:34;13.40;;;8.43;;
62861;SDS011;48953;53.110;5.592;2022-07-24T03:18:02;11.88;;;8.40;;
62861;SDS011;48953;53.110;5.592;2022-07-24T03:20:28;10.18;;;8.35;;
62861;SDS011;48953;53.110;5.592;2022-07-24T03:22:54;13.95;;;9.00;;
62861;SDS011;48953;53.110;5.592;2022-07-24T03:25:20;11.45;;;8.55;;
62861;SDS011;48953;53.110;5.592;2022-07-24T03:27:47;10.50;;;8.77;;
62861;SDS011;48953;53.110;5.592;2022-07-24T03:30:15;12.43;;;8.80;;
62861;SDS011;48953;53.110;5.592;2022-07-24T03:32:41;10.73;;;8.23;;
62861;SDS011;48953;53.110;5.592;2022-07-24T03:35:07;11.18;;;9.38;;
62861;SDS011;48953;53.110;5.592;2022-07-24T03:37:33;13.60;;;8.65;;
62861;SDS011;48953;53.110;5.592;2022-07-24T03:39:58;11.55;;;8.95;;
62861;SDS011;48953;53.110;5.592;2022-07-24T03:42:24;14.13;;;9.00;;
62861;SDS011;48953;53.110;5.592;2022-07-24T03:44:49;12.85;;;9.93;;
62861;SDS011;48953;53.110;5.592;2022-07-24T03:47:15;12.80;;;9.15;;
62861;SDS011;48953;53.110;5.592;2022-07-24T03:49:41;14.32;;;9.50;;
62861;SDS011;48953;53.110;5.592;2022-07-24T03:52:09;11.05;;;9.05;;
62861;SDS011;48953;53.110;5.592;2022-07-24T03:54:34;13.23;;;9.30;;
62861;SDS011;48953;53.110;5.592;2022-07-24T03:57:00;15.82;;;9.30;;
62861;SDS011;48953;53.110;5.592;2022-07-24T03:59:25;11.68;;;8.60;;
62861;SDS011;48953;53.110;5.592;2022-07-24T04:01:51;12.63;;;9.25;;
62861;SDS011;48953;53.110;5.592;2022-07-24T04:04:17;11.82;;;9.00;;
62861;SDS011;48953;53.110;5.592;2022-07-24T04:06:43;10.77;;;8.65;;
62861;SDS011;48953;53.110;5.592;2022-07-24T04:09:09;11.50;;;8.90;;
62861;SDS011;48953;53.110;5.592;2022-07-24T04:11:34;13.23;;;10.02;;
62861;SDS011;48953;53.110;5.592;2022-07-24T04:14:00;14.60;;;10.15;;
62861;SDS011;48953;53.110;5.592;2022-07-24T04:16:26;12.27;;;10.20;;
62861;SDS011;48953;53.110;5.592;2022-07-24T04:18:52;13.82;;;10.02;;
62861;SDS011;48953;53.110;5.592;2022-07-24T04:21:17;14.77;;;10.07;;
62861;SDS011;48953;53.110;5.592;2022-07-24T04:23:43;14.35;;;9.68;;
62861;SDS011;48953;53.110;5.592;2022-07-24T04:26:09;13.77;;;9.50;;
62861;SDS011;48953;53.110;5.592;2022-07-24T04:28:34;12.43;;;9.70;;
62861;SDS011;48953;53.110;5.592;2022-07-24T04:31:00;13.65;;;9.52;;
62861;SDS011;48953;53.110;5.592;2022-07-24T04:33:26;15.55;;;9.98;;
62861;SDS011;48953;53.110;5.592;2022-07-24T04:35:51;14.48;;;9.73;;
62861;SDS011;48953;53.110;5.592;2022-07-24T04:38:17;13.23;;;10.43;;
62861;SDS011;48953;53.110;5.592;2022-07-24T04:40:43;18.15;;;10.50;;
62861;SDS011;48953;53.110;5.592;2022-07-24T04:43:08;15.45;;;10.02;;
62861;SDS011;48953;53.110;5.592;2022-07-24T04:45:34;13.38;;;10.20;;
62861;SDS011;48953;53.110;5.592;2022-07-24T04:47:59;12.02;;;9.32;;
62861;SDS011;48953;53.110;5.592;2022-07-24T04:50:25;12.73;;;10.27;;
62861;SDS011;48953;53.110;5.592;2022-07-24T04:52:51;12.02;;;9.85;;
62861;SDS011;48953;53.110;5.592;2022-07-24T04:55:16;14.13;;;9.70;;
62861;SDS011;48953;53.110;5.592;2022-07-24T04:57:42;11.85;;;9.38;;
62861;SDS011;48953;53.110;5.592;2022-07-24T05:00:09;12.00;;;9.57;;
62861;SDS011;48953;53.110;5.592;2022-07-24T05:02:36;13.63;;;9.90;;
62861;SDS011;48953;53.110;5.592;2022-07-24T05:05:02;12.30;;;9.75;;
62861;SDS011;48953;53.110;5.592;2022-07-24T05:07:28;12.10;;;9.40;;
62861;SDS011;48953;53.110;5.592;2022-07-24T05:09:54;13.70;;;9.50;;
62861;SDS011;48953;53.110;5.592;2022-07-24T05:12:20;11.65;;;8.98;;
62861;SDS011;48953;53.110;5.592;2022-07-24T05:14:45;13.43;;;9.70;;
62861;SDS011;48953;53.110;5.592;2022-07-24T05:17:11;9.50;;;8.50;;
62861;SDS011;48953;53.110;5.592;2022-07-24T05:19:36;10.43;;;8.68;;
62861;SDS011;48953;53.110;5.592;2022-07-24T05:22:02;12.15;;;8.98;;
62861;SDS011;48953;53.110;5.592;2022-07-24T05:24:28;11.93;;;9.45;;
62861;SDS011;48953;53.110;5.592;2022-07-24T05:26:54;11.02;;;9.10;;
62861;SDS011;48953;53.110;5.592;2022-07-24T05:29:19;10.32;;;9.10;;
62861;SDS011;48953;53.110;5.592;2022-07-24T05:31:45;13.50;;;9.57;;
62861;SDS011;48953;53.110;5.592;2022-07-24T05:34:11;11.60;;;9.30;;
62861;SDS011;48953;53.110;5.592;2022-07-24T05:36:37;11.80;;;9.70;;
62861;SDS011;48953;53.110;5.592;2022-07-24T05:39:03;13.40;;;9.82;;
62861;SDS011;48953;53.110;5.592;2022-07-24T05:41:29;11.52;;;9.68;;
62861;SDS011;48953;53.110;5.592;2022-07-24T05:43:54;11.18;;;10.02;;
62861;SDS011;48953;53.110;5.592;2022-07-24T05:46:20;12.00;;;9.70;;
62861;SDS011;48953;53.110;5.592;2022-07-24T05:48:46;12.20;;;10.30;;
62861;SDS011;48953;53.110;5.592;2022-07-24T05:51:11;11.63;;;9.90;;
62861;SDS011;48953;53.110;5.592;2022-07-24T05:53:37;11.70;;;10.25;;
62861;SDS011;48953;53.110;5.592;2022-07-24T05:56:03;13.02;;;11.00;;
62861;SDS011;48953;53.110;5.592;2022-07-24T05:58:29;12.88;;;10.85;;
62861;SDS011;48953;53.110;5.592;2022-07-24T06:00:55;12.88;;;10.45;;
62861;SDS011;48953;53.110;5.592;2022-07-24T06:03:21;10.35;;;9.35;;
62861;SDS011;48953;53.110;5.592;2022-07-24T06:05:46;11.90;;;8.77;;
62861;SDS011;48953;53.110;5.592;2022-07-24T06:08:12;11.77;;;8.10;;
62861;SDS011;48953;53.110;5.592;2022-07-24T06:10:37;8.65;;;6.88;;
62861;SDS011;48953;53.110;5.592;2022-07-24T06:13:03;8.20;;;5.90;;
62861;SDS011;48953;53.110;5.592;2022-07-24T06:15:29;7.97;;;4.90;;
62861;SDS011;48953;53.110;5.592;2022-07-24T06:17:55;7.55;;;4.50;;
62861;SDS011;48953;53.110;5.592;2022-07-24T06:20:20;9.80;;;5.20;;
62861;SDS011;48953;53.110;5.592;2022-07-24T06:22:46;10.60;;;4.53;;
62861;SDS011;48953;53.110;5.592;2022-07-24T06:25:11;7.50;;;4.78;;
62861;SDS011;48953;53.110;5.592;2022-07-24T06:27:44;7.22;;;4.60;;
62861;SDS011;48953;53.110;5.592;2022-07-24T06:30:14;7.28;;;4.50;;
62861;SDS011;48953;53.110;5.592;2022-07-24T06:32:41;7.97;;;4.28;;
62861;SDS011;48953;53.110;5.592;2022-07-24T06:35:08;6.20;;;4.30;;
62861;SDS011;48953;53.110;5.592;2022-07-24T06:37:34;7.38;;;4.60;;
62861;SDS011;48953;53.110;5.592;2022-07-24T06:39:59;7.38;;;4.30;;
62861;SDS011;48953;53.110;5.592;2022-07-24T06:42:25;5.50;;;4.20;;
62861;SDS011;48953;53.110;5.592;2022-07-24T06:44:51;6.90;;;3.90;;
62861;SDS011;48953;53.110;5.592;2022-07-24T06:47:16;6.38;;;4.05;;
62861;SDS011;48953;53.110;5.592;2022-07-24T06:49:42;5.95;;;4.00;;
62861;SDS011;48953;53.110;5.592;2022-07-24T06:52:07;6.57;;;3.90;;
62861;SDS011;48953;53.110;5.592;2022-07-24T06:54:33;4.53;;;3.85;;
62861;SDS011;48953;53.110;5.592;2022-07-24T06:56:58;6.65;;;4.68;;
62861;SDS011;48953;53.110;5.592;2022-07-24T06:59:24;7.05;;;4.43;;
62861;SDS011;48953;53.110;5.592;2022-07-24T07:01:50;4.43;;;3.88;;
62861;SDS011;48953;53.110;5.592;2022-07-24T07:04:16;6.78;;;4.07;;
62861;SDS011;48953;53.110;5.592;2022-07-24T07:06:42;5.80;;;4.15;;
62861;SDS011;48953;53.110;5.592;2022-07-24T07:09:07;8.65;;;4.68;;
62861;SDS011;48953;53.110;5.592;2022-07-24T07:11:33;6.70;;;4.50;;
62861;SDS011;48953;53.110;5.592;2022-07-24T07:13:58;5.82;;;4.28;;
62861;SDS011;48953;53.110;5.592;2022-07-24T07:16:24;6.90;;;4.65;;
62861;SDS011;48953;53.110;5.592;2022-07-24T07:18:50;5.18;;;4.15;;
62861;SDS011;48953;53.110;5.592;2022-07-24T07:21:15;5.93;;;4.00;;
62861;SDS011;48953;53.110;5.592;2022-07-24T07:23:41;5.13;;;3.80;;
62861;SDS011;48953;53.110;5.592;2022-07-24T07:26:07;7.68;;;4.05;;
62861;SDS011;48953;53.110;5.592;2022-07-24T07:28:32;5.70;;;3.78;;
62861;SDS011;48953;53.110;5.592;2022-07-24T07:30:58;6.30;;;3.90;;
62861;SDS011;48953;53.110;5.592;2022-07-24T07:33:23;6.28;;;4.13;;
62861;SDS011;48953;53.110;5.592;2022-07-24T07:35:51;4.13;;;3.75;;
62861;SDS011;48953;53.110;5.592;2022-07-24T07:38:17;6.15;;;4.18;;
62861;SDS011;48953;53.110;5.592;2022-07-24T07:40:42;6.78;;;3.88;;
62861;SDS011;48953;53.110;5.592;2022-07-24T07:43:08;6.10;;;3.83;;
62861;SDS011;48953;53.110;5.592;2022-07-24T07:45:34;4.90;;;3.75;;
62861;SDS011;48953;53.110;5.592;2022-07-24T07:47:59;3.90;;;3.50;;
62861;SDS011;48953;53.110;5.592;2022-07-24T07:50:25;5.03;;;3.78;;
62861;SDS011;48953;53.110;5.592;2022-07-24T07:52:51;4.30;;;3.50;;
62861;SDS011;48953;53.110;5.592;2022-07-24T07:55:16;3.60;;;3.13;;
62861;SDS011;48953;53.110;5.592;2022-07-24T07:57:42;7.43;;;3.88;;
62861;SDS011;48953;53.110;5.592;2022-07-24T08:00:08;4.38;;;3.08;;
62861;SDS011;48953;53.110;5.592;2022-07-24T08:02:36;2.97;;;2.65;;
62861;SDS011;48953;53.110;5.592;2022-07-24T08:05:01;6.43;;;3.40;;
62861;SDS011;48953;53.110;5.592;2022-07-24T08:07:27;3.42;;;2.90;;
62861;SDS011;48953;53.110;5.592;2022-07-24T08:09:52;3.28;;;2.78;;
62861;SDS011;48953;53.110;5.592;2022-07-24T08:12:18;3.83;;;2.92;;
62861;SDS011;48953;53.110;5.592;2022-07-24T08:14:43;3.40;;;2.58;;
62861;SDS011;48953;53.110;5.592;2022-07-24T08:17:09;5.50;;;2.50;;
62861;SDS011;48953;53.110;5.592;2022-07-24T08:19:35;3.75;;;2.83;;
62861;SDS011;48953;53.110;5.592;2022-07-24T08:22:00;3.25;;;2.25;;
62861;SDS011;48953;53.110;5.592;2022-07-24T08:24:26;4.75;;;2.80;;
62861;SDS011;48953;53.110;5.592;2022-07-24T08:26:52;4.32;;;2.88;;
62861;SDS011;48953;53.110;5.592;2022-07-24T08:29:17;4.88;;;2.50;;
62861;SDS011;48953;53.110;5.592;2022-07-24T08:31:43;2.90;;;2.45;;
62861;SDS011;48953;53.110;5.592;2022-07-24T08:34:08;4.10;;;2.40;;
62861;SDS011;48953;53.110;5.592;2022-07-24T08:36:34;4.47;;;2.83;;
62861;SDS011;48953;53.110;5.592;2022-07-24T08:39:00;3.80;;;2.33;;
62861;SDS011;48953;53.110;5.592;2022-07-24T08:41:29;3.95;;;2.60;;
62861;SDS011;48953;53.110;5.592;2022-07-24T08:43:58;6.72;;;2.78;;
62861;SDS011;48953;53.110;5.592;2022-07-24T08:46:24;4.13;;;2.65;;
62861;SDS011;48953;53.110;5.592;2022-07-24T08:48:52;2.60;;;2.28;;
62861;SDS011;48953;53.110;5.592;2022-07-24T08:51:18;4.25;;;2.42;;
62861;SDS011;48953;53.110;5.592;2022-07-24T08:53:44;5.93;;;2.78;;
62861;SDS011;48953;53.110;5.592;2022-07-24T08:56:12;3.05;;;2.60;;
62861;SDS011;48953;53.110;5.592;2022-07-24T08:58:38;2.70;;;2.35;;
62861;SDS011;48953;53.110;5.592;2022-07-24T09:01:05;4.07;;;2.50;;
62861;SDS011;48953;53.110;5.592;2022-07-24T09:03:43;4.55;;;2.42;;
62861;SDS011;48953;53.110;5.592;2022-07-24T09:06:11;5.40;;;2.38;;
62861;SDS011;48953;53.110;5.592;2022-07-24T09:08:39;4.45;;;2.58;;
62861;SDS011;48953;53.110;5.592;2022-07-24T09:11:08;3.20;;;2.45;;
62861;SDS011;48953;53.110;5.592;2022-07-24T09:13:34;5.13;;;2.38;;
62861;SDS011;48953;53.110;5.592;2022-07-24T09:16:24;3.35;;;2.60;;
62861;SDS011;48953;53.110;5.592;2022-07-24T09:18:51;3.08;;;2.45;;
62861;SDS011;48953;53.110;5.592;2022-07-24T09:21:34;4.57;;;2.42;;
62861;SDS011;48953;53.110;5.592;2022-07-24T09:24:14;2.85;;;2.63;;
62861;SDS011;48953;53.110;5.592;2022-07-24T09:29:11;3.30;;;2.42;;
62861;SDS011;48953;53.110;5.592;2022-07-24T09:34:18;6.22;;;2.00;;
62861;SDS011;48953;53.110;5.592;2022-07-24T09:37:02;2.33;;;1.98;;
62861;SDS011;48953;53.110;5.592;2022-07-24T09:39:29;1.95;;;1.85;;
62861;SDS011;48953;53.110;5.592;2022-07-24T09:41:59;2.38;;;1.85;;
62861;SDS011;48953;53.110;5.592;2022-07-24T09:44:26;3.92;;;2.15;;
62861;SDS011;48953;53.110;5.592;2022-07-24T09:47:04;3.08;;;1.95;;
62861;SDS011;48953;53.110;5.592;2022-07-24T09:49:32;3.33;;;1.77;;
62861;SDS011;48953;53.110;5.592;2022-07-24T09:54:35;4.25;;;2.03;;
62861;SDS011;48953;53.110;5.592;2022-07-24T09:57:18;3.50;;;2.08;;
62861;SDS011;48953;53.110;5.592;2022-07-24T09:59:50;2.40;;;2.20;;
62861;SDS011;48953;53.110;5.592;2022-07-24T10:02:24;2.13;;;2.03;;
62861;SDS011;48953;53.110;5.592;2022-07-24T10:04:55;3.88;;;2.20;;
62861;SDS011;48953;53.110;5.592;2022-07-24T10:07:22;2.60;;;1.98;;
62861;SDS011;48953;53.110;5.592;2022-07-24T10:09:49;2.30;;;2.05;;
62861;SDS011;48953;53.110;5.592;2022-07-24T10:12:20;2.60;;;2.03;;
62861;SDS011;48953;53.110;5.592;2022-07-24T10:14:54;3.60;;;2.20;;
62861;SDS011;48953;53.110;5.592;2022-07-24T10:17:22;3.40;;;1.88;;
62861;SDS011;48953;53.110;5.592;2022-07-24T10:20:11;3.28;;;2.10;;
62861;SDS011;48953;53.110;5.592;2022-07-24T10:25:54;2.90;;;2.10;;
62861;SDS011;48953;53.110;5.592;2022-07-24T10:28:35;2.20;;;2.00;;
62861;SDS011;48953;53.110;5.592;2022-07-24T10:31:02;2.55;;;1.90;;
62861;SDS011;48953;53.110;5.592;2022-07-24T10:33:29;2.75;;;2.03;;
62861;SDS011;48953;53.110;5.592;2022-07-24T10:35:55;3.20;;;1.90;;
62861;SDS011;48953;53.110;5.592;2022-07-24T10:38:29;2.22;;;2.00;;
62861;SDS011;48953;53.110;5.592;2022-07-24T10:41:02;2.80;;;1.80;;
62861;SDS011;48953;53.110;5.592;2022-07-24T10:43:33;2.30;;;2.10;;
62861;SDS011;48953;53.110;5.592;2022-07-24T10:48:25;2.05;;;1.95;;
62861;SDS011;48953;53.110;5.592;2022-07-24T10:53:26;2.40;;;2.20;;
62861;SDS011;48953;53.110;5.592;2022-07-24T10:56:13;2.55;;;1.80;;
62861;SDS011;48953;53.110;5.592;2022-07-24T11:03:55;2.10;;;1.92;;
62861;SDS011;48953;53.110;5.592;2022-07-24T11:06:37;4.03;;;2.13;;
62861;SDS011;48953;53.110;5.592;2022-07-24T11:09:05;5.47;;;2.28;;
62861;SDS011;48953;53.110;5.592;2022-07-24T11:11:30;2.28;;;2.10;;
62861;SDS011;48953;53.110;5.592;2022-07-24T11:13:56;5.07;;;2.40;;
62861;SDS011;48953;53.110;5.592;2022-07-24T11:16:28;8.98;;;2.35;;
62861;SDS011;48953;53.110;5.592;2022-07-24T11:21:28;2.88;;;1.98;;
62861;SDS011;48953;53.110;5.592;2022-07-24T11:26:39;3.72;;;2.00;;
62861;SDS011;48953;53.110;5.592;2022-07-24T11:29:17;2.30;;;2.08;;
62861;SDS011;48953;53.110;5.592;2022-07-24T11:31:49;3.55;;;2.50;;
62861;SDS011;48953;53.110;5.592;2022-07-24T11:34:18;3.53;;;2.00;;
62861;SDS011;48953;53.110;5.592;2022-07-24T11:36:44;2.30;;;1.92;;
62861;SDS011;48953;53.110;5.592;2022-07-24T11:44:26;2.17;;;1.98;;
62861;SDS011;48953;53.110;5.592;2022-07-24T11:46:57;2.38;;;2.15;;
62861;SDS011;48953;53.110;5.592;2022-07-24T11:49:45;3.72;;;1.98;;
62861;SDS011;48953;53.110;5.592;2022-07-24T11:52:14;3.15;;;1.67;;
62861;SDS011;48953;53.110;5.592;2022-07-24T11:54:44;5.15;;;2.25;;
62861;SDS011;48953;53.110;5.592;2022-07-24T11:57:15;4.22;;;1.85;;
62861;SDS011;48953;53.110;5.592;2022-07-24T11:59:49;2.58;;;1.95;;
62861;SDS011;48953;53.110;5.592;2022-07-24T12:02:15;2.90;;;1.75;;
62861;SDS011;48953;53.110;5.592;2022-07-24T12:04:42;2.25;;;1.80;;
62861;SDS011;48953;53.110;5.592;2022-07-24T12:07:09;3.83;;;1.92;;
62861;SDS011;48953;53.110;5.592;2022-07-24T12:09:47;2.93;;;1.87;;
62861;SDS011;48953;53.110;5.592;2022-07-24T12:12:22;2.15;;;1.80;;
62861;SDS011;48953;53.110;5.592;2022-07-24T12:14:54;3.72;;;1.73;;
62861;SDS011;48953;53.110;5.592;2022-07-24T12:17:33;3.88;;;1.80;;
62861;SDS011;48953;53.110;5.592;2022-07-24T12:20:01;3.93;;;1.60;;
62861;SDS011;48953;53.110;5.592;2022-07-24T12:22:31;2.20;;;1.58;;
62861;SDS011;48953;53.110;5.592;2022-07-24T12:24:57;2.88;;;1.73;;
62861;SDS011;48953;53.110;5.592;2022-07-24T12:27:40;2.88;;;1.63;;
62861;SDS011;48953;53.110;5.592;2022-07-24T12:30:30;2.25;;;1.50;;
62861;SDS011;48953;53.110;5.592;2022-07-24T12:35:51;1.80;;;1.50;;
62861;SDS011;48953;53.110;5.592;2022-07-24T12:38:24;1.85;;;1.60;;
62861;SDS011;48953;53.110;5.592;2022-07-24T12:40:51;1.88;;;1.50;;
62861;SDS011;48953;53.110;5.592;2022-07-24T12:43:32;1.55;;;1.38;;
62861;SDS011;48953;53.110;5.592;2022-07-24T12:46:08;1.52;;;1.45;;
62861;SDS011;48953;53.110;5.592;2022-07-24T12:48:34;1.95;;;1.40;;
62861;SDS011;48953;53.110;5.592;2022-07-24T12:51:04;1.98;;;1.77;;
62861;SDS011;48953;53.110;5.592;2022-07-24T12:53:33;1.67;;;1.52;;
62861;SDS011;48953;53.110;5.592;2022-07-24T12:58:46;1.70;;;1.60;;
62861;SDS011;48953;53.110;5.592;2022-07-24T13:01:15;2.05;;;1.60;;
62861;SDS011;48953;53.110;5.592;2022-07-24T13:03:41;2.92;;;1.63;;
62861;SDS011;48953;53.110;5.592;2022-07-24T13:06:08;1.58;;;1.45;;
62861;SDS011;48953;53.110;5.592;2022-07-24T13:08:34;2.75;;;1.70;;
62861;SDS011;48953;53.110;5.592;2022-07-24T13:11:00;3.42;;;1.85;;
62861;SDS011;48953;53.110;5.592;2022-07-24T13:13:25;1.67;;;1.58;;
62861;SDS011;48953;53.110;5.592;2022-07-24T13:15:51;1.45;;;1.35;;
62861;SDS011;48953;53.110;5.592;2022-07-24T13:18:16;3.55;;;1.52;;
62861;SDS011;48953;53.110;5.592;2022-07-24T13:20:42;4.32;;;1.73;;
62861;SDS011;48953;53.110;5.592;2022-07-24T13:23:08;4.13;;;1.77;;
62861;SDS011;48953;53.110;5.592;2022-07-24T13:25:33;1.98;;;1.73;;
62861;SDS011;48953;53.110;5.592;2022-07-24T13:27:59;1.85;;;1.60;;
62861;SDS011;48953;53.110;5.592;2022-07-24T13:30:24;1.92;;;1.67;;
62861;SDS011;48953;53.110;5.592;2022-07-24T13:32:50;1.80;;;1.70;;
62861;SDS011;48953;53.110;5.592;2022-07-24T13:35:15;5.05;;;1.70;;
62861;SDS011;48953;53.110;5.592;2022-07-24T13:37:41;2.40;;;1.83;;
62861;SDS011;48953;53.110;5.592;2022-07-24T13:40:07;2.00;;;1.80;;
62861;SDS011;48953;53.110;5.592;2022-07-24T13:42:36;2.58;;;1.80;;
62861;SDS011;48953;53.110;5.592;2022-07-24T13:45:01;4.57;;;2.50;;
62861;SDS011;48953;53.110;5.592;2022-07-24T13:47:27;3.55;;;2.05;;
62861;SDS011;48953;53.110;5.592;2022-07-24T13:49:53;2.40;;;2.20;;
62861;SDS011;48953;53.110;5.592;2022-07-24T13:52:18;4.60;;;2.30;;
62861;SDS011;48953;53.110;5.592;2022-07-24T13:54:44;3.38;;;2.22;;
62861;SDS011;48953;53.110;5.592;2022-07-24T13:57:09;3.80;;;2.08;;
62861;SDS011;48953;53.110;5.592;2022-07-24T13:59:37;3.17;;;2.40;;
62861;SDS011;48953;53.110;5.592;2022-07-24T14:02:02;2.42;;;2.22;;
62861;SDS011;48953;53.110;5.592;2022-07-24T14:04:28;4.03;;;2.25;;
62861;SDS011;48953;53.110;5.592;2022-07-24T14:06:54;3.33;;;2.10;;
62861;SDS011;48953;53.110;5.592;2022-07-24T14:09:20;2.20;;;1.92;;
62861;SDS011;48953;53.110;5.592;2022-07-24T14:11:46;3.35;;;2.10;;
62861;SDS011;48953;53.110;5.592;2022-07-24T14:14:12;7.28;;;2.42;;
62861;SDS011;48953;53.110;5.592;2022-07-24T14:16:37;2.30;;;2.10;;
62861;SDS011;48953;53.110;5.592;2022-07-24T14:19:03;2.40;;;2.10;;
62861;SDS011;48953;53.110;5.592;2022-07-24T14:21:29;4.53;;;2.33;;
62861;SDS011;48953;53.110;5.592;2022-07-24T14:23:55;2.78;;;2.15;;
62861;SDS011;48953;53.110;5.592;2022-07-24T14:26:20;3.42;;;2.13;;
62861;SDS011;48953;53.110;5.592;2022-07-24T14:28:46;3.58;;;2.30;;
62861;SDS011;48953;53.110;5.592;2022-07-24T14:31:11;2.35;;;2.25;;
62861;SDS011;48953;53.110;5.592;2022-07-24T14:33:38;3.03;;;2.63;;
62861;SDS011;48953;53.110;5.592;2022-07-24T14:36:04;4.43;;;3.30;;
62861;SDS011;48953;53.110;5.592;2022-07-24T14:38:30;3.42;;;2.42;;
62861;SDS011;48953;53.110;5.592;2022-07-24T14:40:55;3.17;;;2.22;;
62861;SDS011;48953;53.110;5.592;2022-07-24T14:43:21;3.63;;;2.92;;
62861;SDS011;48953;53.110;5.592;2022-07-24T14:45:46;2.40;;;2.20;;
62861;SDS011;48953;53.110;5.592;2022-07-24T14:48:12;3.35;;;2.25;;
62861;SDS011;48953;53.110;5.592;2022-07-24T14:50:38;3.05;;;2.58;;
62861;SDS011;48953;53.110;5.592;2022-07-24T14:53:03;7.22;;;3.67;;
62861;SDS011;48953;53.110;5.592;2022-07-24T14:55:29;3.83;;;3.53;;
62861;SDS011;48953;53.110;5.592;2022-07-24T14:57:54;2.95;;;2.42;;
62861;SDS011;48953;53.110;5.592;2022-07-24T15:00:20;3.15;;;2.72;;
62861;SDS011;48953;53.110;5.592;2022-07-24T15:02:46;5.57;;;3.90;;
62861;SDS011;48953;53.110;5.592;2022-07-24T15:05:11;4.13;;;2.75;;
62861;SDS011;48953;53.110;5.592;2022-07-24T15:07:37;3.40;;;2.90;;
62861;SDS011;48953;53.110;5.592;2022-07-24T15:10:03;3.55;;;2.63;;
62861;SDS011;48953;53.110;5.592;2022-07-24T15:12:28;3.65;;;2.92;;
62861;SDS011;48953;53.110;5.592;2022-07-24T15:14:54;3.47;;;3.00;;
62861;SDS011;48953;53.110;5.592;2022-07-24T15:17:19;3.55;;;3.20;;
62861;SDS011;48953;53.110;5.592;2022-07-24T15:19:45;3.58;;;2.88;;